Time;durP1;ratioP1;P1;durP2;ratioP2;P2;SDS_P1;SDS_P2;PMS_P1;PMS_P2;Temp;Humidity;BMP_temperature;BMP_pressure;BME280_temperature;BME280_humidity;BME280_pressure;Samples;Min_cycle;Max_cycle;Signal;HPM_P1;HPM_P2
2024/03/31 00:00:47;;;;;;;15.63;5.20;;;8.40;99.90;;;;;;4973558;28;20034;-56
2024/03/31 00:03:12;;;;;;;11.23;5.05;;;8.40;99.90;;;;;;4973101;28;20022;-52
2024/03/31 00:05:38;;;;;;;16.25;5.88;;;8.40;99.90;;;;;;4973561;28;20039;-53
2024/03/31 00:08:04;;;;;;;11.63;5.28;;;8.30;99.90;;;;;;4972311;28;20158;-54
2024/03/31 00:10:29;;;;;;;9.63;5.20;;;8.30;99.90;;;;;;4972792;28;20479;-54
2024/03/31 00:12:55;;;;;;;12.20;6.10;;;8.30;99.90;;;;;;4972499;28;20031;-54
2024/03/31 00:15:20;;;;;;;15.63;6.70;;;8.40;99.90;;;;;;4974708;28;20027;-52
2024/03/31 00:17:46;;;;;;;10.80;5.45;;;8.40;99.90;;;;;;4974526;28;20033;-55
2024/03/31 00:20:12;;;;;;;16.10;6.20;;;8.40;99.90;;;;;;4942131;28;20043;-54
2024/03/31 00:22:37;;;;;;;19.23;5.95;;;8.40;99.90;;;;;;4975159;28;20026;-51
2024/03/31 00:25:03;;;;;;;14.38;6.28;;;8.40;99.90;;;;;;4978990;28;20570;-54
2024/03/31 00:27:29;;;;;;;13.77;6.22;;;8.30;99.90;;;;;;4974154;28;20029;-52
2024/03/31 00:29:55;;;;;;;20.35;6.25;;;8.30;99.90;;;;;;4974312;28;20014;-51
2024/03/31 00:32:21;;;;;;;12.05;5.50;;;8.30;99.90;;;;;;4974352;28;20026;-53
2024/03/31 00:34:46;;;;;;;24.10;6.13;;;8.20;99.90;;;;;;4973969;28;20513;-51
2024/03/31 00:37:12;;;;;;;22.02;5.78;;;8.20;99.90;;;;;;4974254;28;20110;-52
2024/03/31 00:39:38;;;;;;;12.85;7.07;;;8.20;99.90;;;;;;4956560;28;20035;-55
2024/03/31 00:42:04;;;;;;;12.45;5.13;;;8.20;99.90;;;;;;4974153;28;20023;-54
2024/03/31 00:44:29;;;;;;;14.13;5.97;;;8.20;99.90;;;;;;4974312;28;20077;-54
2024/03/31 00:46:55;;;;;;;20.05;5.28;;;8.10;99.90;;;;;;4974204;28;20019;-51
2024/03/31 00:49:20;;;;;;;21.73;5.63;;;8.00;99.90;;;;;;4974073;28;20554;-53
2024/03/31 00:51:46;;;;;;;14.88;5.45;;;8.00;99.90;;;;;;4973939;28;20622;-55
2024/03/31 00:54:11;;;;;;;21.40;5.53;;;8.00;99.90;;;;;;4974169;28;20058;-50
2024/03/31 00:56:37;;;;;;;16.55;5.50;;;8.00;99.90;;;;;;4973674;28;20035;-53
2024/03/31 00:59:03;;;;;;;17.95;4.72;;;8.00;99.90;;;;;;4973933;28;20037;-52
2024/03/31 01:01:28;;;;;;;21.02;6.95;;;7.90;99.90;;;;;;4973771;28;20019;-52
2024/03/31 01:03:54;;;;;;;13.63;5.57;;;7.90;99.90;;;;;;4973222;28;20027;-51
2024/03/31 01:06:21;;;;;;;14.50;6.20;;;7.90;99.90;;;;;;4973427;28;20023;-51
2024/03/31 01:08:50;;;;;;;16.50;5.60;;;7.80;99.90;;;;;;4956507;28;20097;-55
2024/03/31 01:11:17;;;;;;;13.18;6.47;;;7.80;99.90;;;;;;4973379;28;20038;-54
2024/03/31 01:13:43;;;;;;;24.27;7.28;;;7.80;99.90;;;;;;4969327;28;20545;-52
2024/03/31 01:16:08;;;;;;;16.70;6.95;;;7.70;99.90;;;;;;4973366;28;20026;-52
2024/03/31 01:18:34;;;;;;;12.50;6.60;;;7.80;99.90;;;;;;4939282;28;20027;-52
2024/03/31 01:21:01;;;;;;;14.23;6.43;;;7.80;99.90;;;;;;4954538;28;20053;-55
2024/03/31 01:23:32;;;;;;;24.92;7.72;;;7.80;99.90;;;;;;4972018;28;20038;-55
2024/03/31 01:25:58;;;;;;;15.80;7.18;;;7.80;99.90;;;;;;4973585;28;20023;-51
2024/03/31 01:28:24;;;;;;;19.95;7.20;;;7.70;99.90;;;;;;4973568;28;20427;-53
2024/03/31 01:30:49;;;;;;;20.27;7.28;;;7.80;99.90;;;;;;4973358;28;20027;-56
2024/03/31 01:33:15;;;;;;;19.10;7.60;;;7.70;99.90;;;;;;4973310;28;20049;-56
2024/03/31 01:35:41;;;;;;;17.75;7.30;;;7.70;99.90;;;;;;4973339;28;20038;-54
2024/03/31 01:38:06;;;;;;;14.45;6.75;;;7.70;99.90;;;;;;4973575;28;20038;-54
2024/03/31 01:40:32;;;;;;;20.33;7.50;;;7.70;99.90;;;;;;4973390;28;20030;-55
2024/03/31 01:42:58;;;;;;;15.52;7.15;;;7.80;99.90;;;;;;4973462;28;20035;-51
2024/03/31 01:45:23;;;;;;;11.27;6.40;;;7.80;99.90;;;;;;4972557;28;20101;-54
2024/03/31 01:47:49;;;;;;;25.40;7.40;;;7.90;99.90;;;;;;4973174;28;20074;-51
2024/03/31 01:50:14;;;;;;;17.73;5.80;;;7.90;99.90;;;;;;4974101;28;20023;-54
2024/03/31 01:52:40;;;;;;;14.68;6.07;;;7.90;99.90;;;;;;4973946;28;20023;-52
2024/03/31 01:55:05;;;;;;;19.15;7.38;;;8.00;99.90;;;;;;4973682;28;20027;-52
2024/03/31 01:57:31;;;;;;;18.27;6.68;;;8.00;99.90;;;;;;4973431;28;20034;-52
2024/03/31 01:59:56;;;;;;;17.13;7.35;;;8.10;99.90;;;;;;4973270;28;20546;-54
2024/03/31 02:02:22;;;;;;;15.82;6.38;;;8.10;99.90;;;;;;4973188;28;20090;-55
2024/03/31 02:04:47;;;;;;;15.73;5.63;;;8.10;99.90;;;;;;4973574;28;20023;-53
2024/03/31 02:07:13;;;;;;;16.02;5.55;;;8.10;99.90;;;;;;4973672;28;20034;-52
2024/03/31 02:09:38;;;;;;;18.15;6.45;;;8.20;99.90;;;;;;4973867;28;20499;-55
2024/03/31 02:12:04;;;;;;;15.55;6.53;;;8.20;99.90;;;;;;4973395;28;20506;-55
2024/03/31 02:14:32;;;;;;;16.48;6.07;;;8.20;99.90;;;;;;4973416;28;20510;-53
2024/03/31 02:16:58;;;;;;;17.85;5.85;;;8.20;99.90;;;;;;4973371;28;20026;-55
2024/03/31 02:19:23;;;;;;;15.50;6.05;;;8.20;99.90;;;;;;4972913;28;20360;-54
2024/03/31 02:21:49;;;;;;;17.63;5.28;;;8.30;99.90;;;;;;4958447;28;20039;-53
2024/03/31 02:24:15;;;;;;;16.55;6.70;;;8.30;99.90;;;;;;4973173;28;20027;-54
2024/03/31 02:26:41;;;;;;;13.10;4.50;;;8.30;99.90;;;;;;4955999;28;20027;-54
2024/03/31 02:29:06;;;;;;;12.13;5.60;;;8.30;99.90;;;;;;4955930;28;20023;-54
2024/03/31 02:31:32;;;;;;;12.45;4.75;;;8.40;99.90;;;;;;4973499;28;20046;-54
2024/03/31 02:33:57;;;;;;;16.20;5.15;;;8.40;99.90;;;;;;4973274;28;20084;-53
2024/03/31 02:36:23;;;;;;;15.60;4.57;;;8.40;99.90;;;;;;4977133;28;20384;-52
2024/03/31 02:38:48;;;;;;;18.00;4.60;;;8.50;99.90;;;;;;4976876;28;20038;-55
2024/03/31 02:41:14;;;;;;;15.80;5.57;;;8.50;99.90;;;;;;4959622;28;20026;-55
2024/03/31 02:43:39;;;;;;;9.43;4.70;;;8.50;99.90;;;;;;4976717;28;20482;-52
2024/03/31 02:46:05;;;;;;;15.98;4.53;;;8.50;99.90;;;;;;4976869;28;20494;-56
2024/03/31 02:48:31;;;;;;;22.65;5.07;;;8.50;99.90;;;;;;4976905;28;20023;-56
2024/03/31 02:50:56;;;;;;;14.55;4.88;;;8.60;99.90;;;;;;4977074;28;20023;-53
2024/03/31 02:53:22;;;;;;;17.83;3.70;;;8.60;99.90;;;;;;4976693;28;20093;-54
2024/03/31 02:55:47;;;;;;;21.13;5.45;;;8.60;99.90;;;;;;4976714;28;20031;-55
2024/03/31 02:58:13;;;;;;;15.73;3.00;;;8.60;99.90;;;;;;4976577;28;20130;-55
2024/03/31 03:00:38;;;;;;;15.65;5.18;;;8.60;99.90;;;;;;4976566;28;20031;-56
2024/03/31 03:03:04;;;;;;;26.35;6.70;;;8.60;99.90;;;;;;4976598;28;20046;-56
2024/03/31 03:05:29;;;;;;;19.52;4.72;;;8.50;99.90;;;;;;4976788;28;20027;-57
2024/03/31 03:07:55;;;;;;;15.07;4.35;;;8.50;99.90;;;;;;4976406;28;20118;-55
2024/03/31 03:10:20;;;;;;;10.55;4.25;;;8.50;99.90;;;;;;4976340;28;20531;-56
2024/03/31 03:12:47;;;;;;;16.65;3.72;;;8.50;99.90;;;;;;4976734;28;20534;-56
2024/03/31 03:15:12;;;;;;;10.13;4.00;;;8.60;99.90;;;;;;4976479;28;20035;-53
2024/03/31 03:17:38;;;;;;;11.32;4.65;;;8.60;99.90;;;;;;4976488;28;20104;-52
2024/03/31 03:20:04;;;;;;;13.60;5.03;;;8.60;99.90;;;;;;4976377;28;20380;-55
2024/03/31 03:22:30;;;;;;;10.35;4.20;;;8.60;99.90;;;;;;4966159;28;20067;-56
2024/03/31 03:24:55;;;;;;;16.38;3.70;;;8.60;99.90;;;;;;4975924;28;20577;-57
2024/03/31 03:27:21;;;;;;;8.85;3.80;;;8.60;99.90;;;;;;4976010;28;20050;-54
2024/03/31 03:29:46;;;;;;;12.55;3.53;;;8.60;99.90;;;;;;4975086;28;20055;-54
2024/03/31 03:32:12;;;;;;;11.50;3.47;;;8.60;99.90;;;;;;4971086;28;20026;-54
2024/03/31 03:34:37;;;;;;;9.68;3.83;;;8.60;99.90;;;;;;4972095;28;20537;-54
2024/03/31 03:37:03;;;;;;;12.10;3.25;;;8.60;99.90;;;;;;4972008;28;20470;-58
2024/03/31 03:39:29;;;;;;;13.23;4.07;;;8.60;99.90;;;;;;4972737;28;20501;-56
2024/03/31 03:41:55;;;;;;;7.50;2.83;;;8.60;99.90;;;;;;4957350;28;20022;-54
2024/03/31 03:44:20;;;;;;;21.23;3.47;;;8.60;99.90;;;;;;4958089;28;20030;-56
2024/03/31 03:46:46;;;;;;;8.48;2.47;;;8.60;99.90;;;;;;4974978;28;20022;-56
2024/03/31 03:49:12;;;;;;;15.38;3.38;;;8.70;99.90;;;;;;4942760;28;20403;-55
2024/03/31 03:51:38;;;;;;;12.85;4.38;;;8.70;99.90;;;;;;4974878;28;20023;-53
2024/03/31 03:54:04;;;;;;;11.15;3.08;;;8.70;99.90;;;;;;4975571;28;20042;-54
2024/03/31 03:56:30;;;;;;;14.35;3.28;;;8.70;99.90;;;;;;4974810;28;20464;-55
2024/03/31 03:58:57;;;;;;;10.20;2.75;;;8.70;99.90;;;;;;4975266;28;20096;-55
2024/03/31 04:01:23;;;;;;;8.52;3.35;;;8.70;99.90;;;;;;4957145;28;20015;-53
2024/03/31 04:03:48;;;;;;;11.77;3.55;;;8.70;99.90;;;;;;4975118;28;20368;-56
2024/03/31 04:06:14;;;;;;;15.45;3.08;;;8.70;99.90;;;;;;4974834;28;20038;-55
2024/03/31 04:08:40;;;;;;;15.57;3.10;;;8.80;99.90;;;;;;4975128;28;20467;-52
2024/03/31 04:11:05;;;;;;;12.95;3.10;;;8.80;99.90;;;;;;4975584;28;20022;-52
2024/03/31 04:13:31;;;;;;;7.03;3.05;;;8.80;99.90;;;;;;4974703;28;20499;-55
2024/03/31 04:16:00;;;;;;;8.50;2.83;;;8.80;99.90;;;;;;4975351;28;20031;-56
2024/03/31 04:18:26;;;;;;;13.75;2.80;;;8.80;99.90;;;;;;4974805;28;20502;-53
2024/03/31 04:20:52;;;;;;;7.05;2.63;;;8.90;99.90;;;;;;4959988;28;20048;-55
2024/03/31 04:23:17;;;;;;;10.80;3.13;;;8.90;99.90;;;;;;4974915;28;20066;-56
2024/03/31 04:25:43;;;;;;;21.13;3.40;;;8.80;99.90;;;;;;4974680;28;20023;-56
2024/03/31 04:28:09;;;;;;;15.40;3.03;;;8.80;99.90;;;;;;4958250;28;20015;-56
2024/03/31 04:30:42;;;;;;;8.35;2.70;;;8.80;99.90;;;;;;4975388;28;20022;-55
2024/03/31 04:33:08;;;;;;;15.90;4.85;;;8.80;99.90;;;;;;4973858;28;20019;-56
2024/03/31 04:35:37;;;;;;;10.85;4.45;;;8.80;99.90;;;;;;4974083;28;20079;-55
2024/03/31 04:38:04;;;;;;;15.80;4.97;;;8.80;99.90;;;;;;4974340;28;20034;-56
2024/03/31 04:40:29;;;;;;;13.50;4.00;;;8.90;99.90;;;;;;4974569;28;20030;-53
2024/03/31 04:42:55;;;;;;;10.73;3.72;;;8.80;99.90;;;;;;4974210;28;20034;-52
2024/03/31 04:45:20;;;;;;;12.55;3.53;;;8.80;99.90;;;;;;4974269;28;20409;-55
2024/03/31 04:47:46;;;;;;;16.38;2.75;;;8.90;99.90;;;;;;4973381;28;20479;-55
2024/03/31 04:50:11;;;;;;;9.90;3.13;;;8.90;99.90;;;;;;4974451;28;20386;-55
2024/03/31 04:52:37;;;;;;;11.80;2.42;;;9.00;99.90;;;;;;4973777;28;20548;-56
2024/03/31 04:55:03;;;;;;;8.85;1.75;;;9.00;99.90;;;;;;4974062;28;20099;-52
2024/03/31 04:57:28;;;;;;;17.02;3.22;;;9.00;99.90;;;;;;4973431;28;20030;-55
2024/03/31 04:59:54;;;;;;;10.65;2.90;;;9.00;99.90;;;;;;4973368;28;20026;-55
2024/03/31 05:02:19;;;;;;;7.53;2.47;;;9.10;99.90;;;;;;4974297;28;20033;-55
2024/03/31 05:04:45;;;;;;;11.68;2.20;;;9.10;99.90;;;;;;4974093;28;20097;-54
2024/03/31 05:07:11;;;;;;;12.38;2.83;;;9.10;99.90;;;;;;4973756;28;20502;-55
2024/03/31 05:09:37;;;;;;;8.05;2.88;;;9.10;99.90;;;;;;4974014;28;20027;-56
2024/03/31 05:12:02;;;;;;;12.43;2.78;;;9.00;99.90;;;;;;4973949;28;20026;-54
2024/03/31 05:14:28;;;;;;;14.38;3.03;;;9.00;99.90;;;;;;4974130;28;20407;-57
2024/03/31 05:16:55;;;;;;;9.23;2.28;;;9.00;99.90;;;;;;4973924;28;20038;-55
2024/03/31 05:19:20;;;;;;;13.32;3.90;;;9.00;99.90;;;;;;4972088;28;20495;-53
2024/03/31 05:21:46;;;;;;;12.73;3.22;;;9.00;99.90;;;;;;4959724;28;20074;-55
2024/03/31 05:24:12;;;;;;;9.75;2.00;;;9.00;99.90;;;;;;4975795;28;20019;-52
2024/03/31 05:26:37;;;;;;;10.55;2.53;;;9.00;99.90;;;;;;4973298;28;20031;-54
2024/03/31 05:29:03;;;;;;;6.88;2.42;;;9.10;99.90;;;;;;4973884;28;20029;-53
2024/03/31 05:31:28;;;;;;;14.38;3.78;;;9.10;99.90;;;;;;4973392;28;20540;-57
2024/03/31 05:33:54;;;;;;;6.95;2.30;;;9.00;99.90;;;;;;4973733;28;20498;-55
2024/03/31 05:36:19;;;;;;;15.68;3.10;;;9.10;99.90;;;;;;4973101;28;20099;-56
2024/03/31 05:38:45;;;;;;;13.90;2.85;;;9.10;99.90;;;;;;4973636;28;20487;-55
2024/03/31 05:41:10;;;;;;;12.38;2.42;;;9.20;99.90;;;;;;4973766;28;20089;-56
2024/03/31 05:43:36;;;;;;;12.90;2.30;;;9.20;99.90;;;;;;4972919;28;20037;-56
2024/03/31 05:46:02;;;;;;;8.77;3.08;;;9.30;99.90;;;;;;4973476;28;20111;-56
2024/03/31 05:48:27;;;;;;;10.90;2.17;;;9.20;99.90;;;;;;4972988;28;20027;-57
2024/03/31 05:50:53;;;;;;;8.25;2.70;;;9.20;99.90;;;;;;4973818;28;20042;-56
2024/03/31 05:53:18;;;;;;;11.55;2.17;;;9.30;99.90;;;;;;4974267;28;20373;-55
2024/03/31 05:55:44;;;;;;;9.52;1.77;;;9.30;99.90;;;;;;4973212;28;20401;-56
2024/03/31 05:58:10;;;;;;;12.27;2.45;;;9.40;99.90;;;;;;4972363;28;20014;-53
2024/03/31 06:00:35;;;;;;;8.23;2.65;;;9.40;99.90;;;;;;4973459;28;20035;-55
2024/03/31 06:03:01;;;;;;;7.50;2.03;;;9.40;99.90;;;;;;4972624;28;20062;-52
2024/03/31 06:05:26;;;;;;;14.48;2.33;;;9.40;99.90;;;;;;4972844;28;20034;-56
2024/03/31 06:07:52;;;;;;;8.52;2.80;;;9.40;99.90;;;;;;4972999;28;20078;-55
2024/03/31 06:10:18;;;;;;;7.03;2.17;;;9.40;99.90;;;;;;4972375;28;20022;-53
2024/03/31 06:12:44;;;;;;;8.73;2.47;;;9.50;99.90;;;;;;4972924;28;20019;-51
2024/03/31 06:15:09;;;;;;;7.28;2.40;;;9.50;99.90;;;;;;4972952;28;20035;-55
2024/03/31 06:17:36;;;;;;;10.82;3.05;;;9.50;99.90;;;;;;4973194;28;20026;-53
2024/03/31 06:20:02;;;;;;;13.55;3.03;;;9.60;99.90;;;;;;4973199;28;20487;-52
2024/03/31 06:22:29;;;;;;;9.23;3.03;;;9.70;99.90;;;;;;4958468;28;20097;-54
2024/03/31 06:24:54;;;;;;;5.43;2.13;;;9.80;99.90;;;;;;4972447;28;20035;-55
2024/03/31 06:27:20;;;;;;;15.20;2.97;;;9.90;99.90;;;;;;4972713;28;20153;-54
2024/03/31 06:29:52;;;;;;;11.38;3.10;;;10.10;99.90;;;;;;4972743;28;20471;-56
2024/03/31 06:32:17;;;;;;;14.07;2.50;;;10.30;99.90;;;;;;4972811;28;20035;-54
2024/03/31 06:34:44;;;;;;;9.70;3.30;;;10.50;99.90;;;;;;4972846;28;20422;-55
2024/03/31 06:37:10;;;;;;;11.25;2.85;;;10.90;99.90;;;;;;4972467;28;20491;-56
2024/03/31 06:39:35;;;;;;;7.68;2.42;;;11.20;99.90;;;;;;4957321;28;20058;-55
2024/03/31 06:42:01;;;;;;;7.38;2.40;;;11.40;99.90;;;;;;4972241;28;20030;-54
2024/03/31 06:44:26;;;;;;;13.93;3.33;;;11.40;99.90;;;;;;4972627;28;20038;-55
2024/03/31 06:46:52;;;;;;;7.25;2.33;;;11.40;99.90;;;;;;4972131;28;20042;-54
2024/03/31 06:49:18;;;;;;;11.00;2.30;;;11.30;99.90;;;;;;4972749;28;20023;-56
2024/03/31 06:51:43;;;;;;;8.90;2.85;;;11.50;99.90;;;;;;4972430;28;20026;-56
2024/03/31 06:54:09;;;;;;;6.07;2.25;;;12.00;99.90;;;;;;4972441;28;20066;-53
2024/03/31 06:56:34;;;;;;;7.70;2.83;;;12.60;99.90;;;;;;4972412;28;20027;-53
2024/03/31 06:59:00;;;;;;;11.52;2.35;;;12.90;99.90;;;;;;4972623;28;20027;-56
2024/03/31 07:01:26;;;;;;;13.07;2.47;;;13.20;99.90;;;;;;4972459;28;20483;-57
2024/03/31 07:03:51;;;;;;;12.07;2.03;;;13.30;99.90;;;;;;4972265;28;20023;-55
2024/03/31 07:06:17;;;;;;;6.50;2.33;;;13.10;99.90;;;;;;4972138;28;20034;-55
2024/03/31 07:08:42;;;;;;;11.55;2.95;;;13.10;99.90;;;;;;4972249;28;20054;-54
2024/03/31 07:11:08;;;;;;;9.90;3.03;;;13.10;99.90;;;;;;4976929;28;20089;-56
2024/03/31 07:13:33;;;;;;;12.93;2.03;;;12.90;99.90;;;;;;4972225;28;20399;-55
2024/03/31 07:15:59;;;;;;;9.88;1.55;;;12.90;99.90;;;;;;4972129;28;20031;-55
2024/03/31 07:18:24;;;;;;;11.00;2.50;;;12.90;99.90;;;;;;4972237;28;20054;-55
2024/03/31 07:20:50;;;;;;;10.50;2.50;;;12.90;99.90;;;;;;4972169;28;20574;-55
2024/03/31 07:23:16;;;;;;;13.13;2.67;;;12.90;99.90;;;;;;4962877;28;20039;-57
2024/03/31 07:25:41;;;;;;;17.83;3.88;;;13.30;99.90;;;;;;4975534;28;20034;-57
2024/03/31 07:28:07;;;;;;;11.02;1.60;;;13.60;99.90;;;;;;4975330;28;20022;-54
2024/03/31 07:30:32;;;;;;;8.00;2.60;;;13.90;99.90;;;;;;4975511;28;20026;-56
2024/03/31 07:32:58;;;;;;;7.47;2.33;;;14.20;99.90;;;;;;4975664;28;20023;-54
2024/03/31 07:35:23;;;;;;;16.42;3.35;;;14.80;99.90;;;;;;4975859;28;20253;-55
2024/03/31 07:37:49;;;;;;;15.18;3.10;;;15.20;99.90;;;;;;4975434;28;20035;-54
2024/03/31 07:40:15;;;;;;;11.77;2.28;;;15.40;99.90;;;;;;4975809;28;20430;-53
2024/03/31 07:42:40;;;;;;;8.55;2.33;;;16.20;99.90;;;;;;4975471;28;20023;-55
2024/03/31 07:45:06;;;;;;;9.23;2.65;;;17.00;99.90;;;;;;4975522;28;20394;-56
2024/03/31 07:47:32;;;;;;;10.30;2.97;;;16.70;99.90;;;;;;4975336;28;20069;-56
2024/03/31 07:49:58;;;;;;;10.55;2.55;;;16.70;99.90;;;;;;4975685;28;20031;-56
2024/03/31 07:52:24;;;;;;;17.83;1.90;;;16.80;99.90;;;;;;4975610;28;20038;-56
2024/03/31 07:54:49;;;;;;;14.25;2.47;;;17.20;99.90;;;;;;4975403;28;20026;-56
2024/03/31 07:57:15;;;;;;;7.25;2.70;;;17.30;99.90;;;;;;4975632;28;20166;-53
2024/03/31 07:59:41;;;;;;;10.00;1.65;;;17.90;99.90;;;;;;4975399;28;20085;-56
2024/03/31 08:02:07;;;;;;;10.90;1.70;;;18.60;99.90;;;;;;4975503;28;20031;-54
2024/03/31 08:04:33;;;;;;;7.82;2.08;;;19.10;99.90;;;;;;4975550;28;20030;-57
2024/03/31 08:06:58;;;;;;;10.80;2.33;;;19.80;99.90;;;;;;4975276;28;20046;-57
2024/03/31 08:09:24;;;;;;;5.05;1.65;;;20.10;99.90;;;;;;4975148;28;20062;-57
2024/03/31 08:11:49;;;;;;;6.38;1.83;;;21.20;99.60;;;;;;4975122;28;20026;-55
2024/03/31 08:14:15;;;;;;;13.13;2.92;;;21.30;99.40;;;;;;4975199;28;20022;-56
2024/03/31 08:16:40;;;;;;;6.75;1.35;;;22.00;97.00;;;;;;4975157;28;20446;-57
2024/03/31 08:19:06;;;;;;;8.98;1.85;;;22.90;97.20;;;;;;4974982;28;20025;-56
2024/03/31 08:21:31;;;;;;;8.60;2.33;;;22.50;94.60;;;;;;4959704;28;20035;-56
2024/03/31 08:23:57;;;;;;;12.18;2.40;;;22.80;96.10;;;;;;4974986;28;20033;-56
2024/03/31 08:26:23;;;;;;;7.88;1.63;;;22.60;94.30;;;;;;4975005;28;20118;-55
2024/03/31 08:28:48;;;;;;;10.32;2.22;;;22.50;94.60;;;;;;4974836;28;20031;-56
2024/03/31 08:31:14;;;;;;;10.27;2.00;;;23.10;93.80;;;;;;4974834;28;20041;-54
2024/03/31 08:33:39;;;;;;;10.40;1.80;;;22.90;96.30;;;;;;4974504;28;20027;-56
2024/03/31 08:36:05;;;;;;;10.98;2.20;;;22.70;93.70;;;;;;4974551;28;20023;-54
2024/03/31 08:38:30;;;;;;;9.95;2.00;;;23.30;92.70;;;;;;4974523;28;20153;-56
2024/03/31 08:41:04;;;;;;;8.75;1.90;;;23.80;92.00;;;;;;4974582;28;20503;-60
2024/03/31 08:43:36;;;;;;;5.95;1.75;;;23.40;90.90;;;;;;4974403;28;20035;-56
2024/03/31 08:46:02;;;;;;;8.75;1.95;;;23.50;90.50;;;;;;4974774;28;20022;-56
2024/03/31 08:48:31;;;;;;;5.18;1.10;;;22.70;92.00;;;;;;4974614;28;20387;-57
2024/03/31 08:50:57;;;;;;;4.43;1.33;;;22.70;91.10;;;;;;4974452;28;20028;-56
2024/03/31 08:53:25;;;;;;;9.68;1.70;;;23.10;91.00;;;;;;4974428;28;20027;-56
2024/03/31 08:55:50;;;;;;;7.80;1.63;;;23.10;90.00;;;;;;4974353;28;20023;-55
2024/03/31 08:58:16;;;;;;;8.48;2.38;;;23.20;92.30;;;;;;4974377;28;20085;-57
2024/03/31 09:00:43;;;;;;;7.95;1.52;;;23.60;91.00;;;;;;4974284;28;20399;-56
2024/03/31 09:03:09;;;;;;;6.70;1.13;;;23.80;90.90;;;;;;4974062;28;20031;-57
2024/03/31 09:05:36;;;;;;;6.78;1.55;;;23.70;88.00;;;;;;4974020;28;20019;-55
2024/03/31 09:08:06;;;;;;;6.22;1.45;;;23.60;90.00;;;;;;4973893;28;20027;-52
2024/03/31 09:10:32;;;;;;;7.15;1.58;;;23.60;88.20;;;;;;4974194;28;20027;-56
2024/03/31 09:12:57;;;;;;;4.97;2.10;;;23.70;90.50;;;;;;4974014;28;20053;-56
2024/03/31 09:15:23;;;;;;;5.32;1.67;;;23.80;86.00;;;;;;4973726;28;20027;-56
2024/03/31 09:17:48;;;;;;;7.82;1.20;;;23.00;90.40;;;;;;4973598;28;20030;-56
2024/03/31 09:20:14;;;;;;;4.72;1.20;;;23.00;88.50;;;;;;4973729;28;20039;-57
2024/03/31 09:22:40;;;;;;;7.93;1.52;;;22.80;88.70;;;;;;4958242;28;20049;-57
2024/03/31 09:25:08;;;;;;;5.53;1.58;;;22.70;88.30;;;;;;4973772;28;20027;-57
2024/03/31 09:27:34;;;;;;;9.02;1.85;;;23.00;90.10;;;;;;4973966;28;20034;-57
2024/03/31 09:30:00;;;;;;;7.53;1.50;;;23.00;89.50;;;;;;4973322;28;20015;-57
2024/03/31 09:32:27;;;;;;;8.23;1.42;;;23.00;89.40;;;;;;4973122;28;20037;-57
2024/03/31 09:34:53;;;;;;;6.15;1.42;;;22.80;89.40;;;;;;4973628;28;20041;-57
2024/03/31 09:37:19;;;;;;;3.63;0.90;;;23.10;88.50;;;;;;4973486;28;20043;-57
2024/03/31 09:39:45;;;;;;;2.72;1.00;;;23.00;87.90;;;;;;4972499;28;20042;-57
2024/03/31 09:42:11;;;;;;;6.63;1.75;;;23.30;87.80;;;;;;4973251;28;20037;-52
2024/03/31 09:44:39;;;;;;;3.72;1.27;;;22.90;86.90;;;;;;4973075;28;20027;-58
2024/03/31 09:47:12;;;;;;;5.88;1.00;;;22.90;88.10;;;;;;4973401;28;20483;-56
2024/03/31 09:49:43;;;;;;;5.75;1.00;;;22.70;88.20;;;;;;4973469;28;20050;-57
2024/03/31 09:52:12;;;;;;;5.40;0.98;;;23.00;83.90;;;;;;4973431;28;20442;-57
2024/03/31 09:54:53;;;;;;;5.05;0.93;;;22.40;83.40;;;;;;4973374;28;20034;-57
2024/03/31 09:57:23;;;;;;;5.53;0.90;;;22.30;86.90;;;;;;4955865;28;20121;-58
2024/03/31 09:59:56;;;;;;;2.85;0.90;;;22.50;84.50;;;;;;4973434;28;20041;-54
2024/03/31 10:02:25;;;;;;;11.30;1.08;;;22.40;82.80;;;;;;4973547;28;20039;-56
2024/03/31 10:05:14;;;;;;;3.13;0.85;;;21.90;86.00;;;;;;4972966;28;20023;-57
2024/03/31 10:07:40;;;;;;;2.90;1.00;;;21.30;84.60;;;;;;4972706;28;20023;-57
2024/03/31 10:10:08;;;;;;;3.33;1.38;;;21.00;85.60;;;;;;4973183;28;20034;-55
2024/03/31 10:12:34;;;;;;;2.40;1.02;;;20.60;87.60;;;;;;4972389;28;20038;-57
2024/03/31 10:15:01;;;;;;;6.03;1.15;;;20.20;85.70;;;;;;4972180;28;20023;-53
2024/03/31 10:17:28;;;;;;;4.00;1.60;;;19.40;85.20;;;;;;4972294;28;20082;-54
2024/03/31 10:19:56;;;;;;;2.85;0.80;;;19.10;87.90;;;;;;4973059;28;20030;-52
2024/03/31 10:22:23;;;;;;;6.40;1.23;;;19.20;89.00;;;;;;4958024;28;20138;-53
2024/03/31 10:24:50;;;;;;;3.47;1.25;;;19.70;89.90;;;;;;4972922;28;20027;-54
2024/03/31 10:27:17;;;;;;;3.95;0.80;;;19.90;86.30;;;;;;4972400;28;20066;-55
2024/03/31 10:29:44;;;;;;;3.42;1.00;;;20.00;86.60;;;;;;4972411;28;20031;-54
2024/03/31 10:32:10;;;;;;;4.63;1.08;;;20.40;85.30;;;;;;4973121;28;20054;-55
2024/03/31 10:34:38;;;;;;;6.13;1.40;;;20.30;86.20;;;;;;4972633;28;20479;-56
2024/03/31 10:37:07;;;;;;;6.82;1.52;;;20.10;86.90;;;;;;4972480;28;20373;-56
2024/03/31 10:39:34;;;;;;;2.15;0.90;;;20.20;88.10;;;;;;4972707;28;20426;-55
2024/03/31 10:42:00;;;;;;;5.50;1.10;;;20.10;90.10;;;;;;4972806;28;20034;-57
2024/03/31 10:44:26;;;;;;;8.23;1.52;;;20.10;88.80;;;;;;4955540;28;20033;-57
2024/03/31 10:46:52;;;;;;;6.93;1.95;;;20.10;90.00;;;;;;4972805;28;20047;-54
2024/03/31 10:49:18;;;;;;;3.78;1.23;;;19.90;88.80;;;;;;4972713;28;20059;-57
2024/03/31 10:51:44;;;;;;;8.43;1.42;;;19.60;90.00;;;;;;4972709;28;20383;-53
2024/03/31 10:54:36;;;;;;;5.05;1.65;;;19.70;90.60;;;;;;4972725;28;20806;-55
2024/03/31 10:57:04;;;;;;;12.82;1.85;;;19.50;90.40;;;;;;4971451;28;20115;-54
2024/03/31 10:59:31;;;;;;;5.93;1.00;;;19.50;91.90;;;;;;4976645;28;20439;-56
2024/03/31 11:01:58;;;;;;;8.50;1.63;;;19.60;90.70;;;;;;4958877;28;20022;-53
2024/03/31 11:04:25;;;;;;;7.22;1.35;;;19.50;91.00;;;;;;4976365;28;20062;-56
2024/03/31 11:06:55;;;;;;;5.10;1.50;;;19.60;90.90;;;;;;4976226;28;20388;-57
2024/03/31 11:09:21;;;;;;;7.82;1.63;;;19.60;91.00;;;;;;4976468;28;20050;-55
2024/03/31 11:11:47;;;;;;;5.53;1.55;;;19.40;90.50;;;;;;4976336;28;20092;-56
2024/03/31 11:14:12;;;;;;;7.57;1.25;;;19.50;91.40;;;;;;4976001;28;20022;-57
2024/03/31 11:16:39;;;;;;;8.32;1.20;;;19.50;91.50;;;;;;4975633;28;20049;-55
2024/03/31 11:19:06;;;;;;;6.05;1.52;;;19.50;91.10;;;;;;4976207;28;20022;-56
2024/03/31 11:21:33;;;;;;;13.18;1.92;;;19.30;90.80;;;;;;4966491;28;20475;-56
2024/03/31 11:24:03;;;;;;;6.35;1.75;;;19.20;90.80;;;;;;4975941;28;20027;-56
2024/03/31 11:26:29;;;;;;;5.60;1.17;;;19.10;90.80;;;;;;4975842;28;20022;-56
2024/03/31 11:28:56;;;;;;;7.95;1.60;;;19.10;91.20;;;;;;4975874;28;20106;-56
2024/03/31 11:31:22;;;;;;;7.57;1.77;;;19.10;91.10;;;;;;4976167;28;20023;-56
2024/03/31 11:33:48;;;;;;;8.60;1.73;;;19.40;91.10;;;;;;4976444;28;20443;-58
2024/03/31 11:36:16;;;;;;;6.47;1.40;;;19.70;92.40;;;;;;4975974;28;20113;-56
2024/03/31 11:38:42;;;;;;;9.57;1.40;;;19.90;91.70;;;;;;4975292;28;20049;-56
2024/03/31 11:41:09;;;;;;;5.30;1.10;;;20.00;91.50;;;;;;4975465;28;20026;-56
2024/03/31 11:43:35;;;;;;;7.32;1.17;;;20.20;92.30;;;;;;4975131;28;20402;-56
2024/03/31 11:46:01;;;;;;;5.38;1.52;;;20.20;91.20;;;;;;4975155;28;20027;-57
2024/03/31 11:48:30;;;;;;;8.57;1.40;;;19.90;91.60;;;;;;4975417;28;20058;-54
2024/03/31 11:50:56;;;;;;;5.82;1.15;;;19.90;92.70;;;;;;4975405;28;20387;-56
2024/03/31 11:53:21;;;;;;;4.32;1.10;;;20.00;92.10;;;;;;4975394;28;20557;-56
2024/03/31 11:55:48;;;;;;;8.13;1.10;;;20.20;92.20;;;;;;4975202;28;20050;-57
2024/03/31 11:58:14;;;;;;;8.15;1.35;;;20.40;91.90;;;;;;4974797;28;20435;-57
2024/03/31 12:00:49;;;;;;;3.92;0.88;;;20.40;90.40;;;;;;4974780;28;20026;-59
2024/03/31 12:03:14;;;;;;;3.60;0.77;;;20.50;90.40;;;;;;4974800;28;20037;-56
2024/03/31 12:05:44;;;;;;;7.32;1.50;;;20.70;90.30;;;;;;4974959;28;20480;-56
2024/03/31 12:08:09;;;;;;;5.40;0.90;;;20.70;90.20;;;;;;4974835;28;20019;-53
2024/03/31 12:10:35;;;;;;;4.82;1.13;;;20.80;90.40;;;;;;4975092;28;20575;-55
2024/03/31 12:13:02;;;;;;;5.20;1.10;;;20.70;90.30;;;;;;4974619;28;20054;-54
2024/03/31 12:15:28;;;;;;;4.70;1.20;;;20.90;91.00;;;;;;4975132;28;20027;-55
2024/03/31 12:17:58;;;;;;;10.02;2.35;;;21.10;90.10;;;;;;4974837;28;20034;-55
2024/03/31 12:20:24;;;;;;;5.88;1.00;;;20.80;86.40;;;;;;4974737;28;20030;-57
2024/03/31 12:22:50;;;;;;;12.95;2.03;;;20.70;86.00;;;;;;4951459;28;20042;-56
2024/03/31 12:25:17;;;;;;;9.80;1.48;;;20.40;87.60;;;;;;4974952;28;20058;-53
2024/03/31 12:27:42;;;;;;;5.43;1.27;;;20.30;85.50;;;;;;4974718;28;20034;-55
2024/03/31 12:30:09;;;;;;;6.13;1.05;;;20.20;85.90;;;;;;4974510;28;20045;-55
2024/03/31 12:32:35;;;;;;;10.73;1.05;;;20.00;86.40;;;;;;4974844;28;20443;-55
2024/03/31 12:35:01;;;;;;;9.45;1.13;;;20.00;87.00;;;;;;4957071;28;20034;-57
2024/03/31 12:37:27;;;;;;;6.15;1.20;;;20.20;88.70;;;;;;4974468;28;20035;-56
2024/03/31 12:39:57;;;;;;;13.85;1.27;;;20.10;88.90;;;;;;4974505;28;20090;-57